Time;durP1;ratioP1;P1;durP2;ratioP2;P2;SDS_P1;SDS_P2;PMS_P1;PMS_P2;Temp;Humidity;BMP_temperature;BMP_pressure;BME280_temperature;BME280_humidity;BME280_pressure;Samples;Min_cycle;Max_cycle;Signal;HPM_P1;HPM_P2
2022/11/03 00:01:04;;;;;;;8.25;1.98;;;10.80;96.60;;;;;;5112560;28;20023;-62
2022/11/03 00:03:29;;;;;;;8.00;2.10;;;10.90;96.60;;;;;;5113162;28;20096;-60
2022/11/03 00:06:04;;;;;;;6.95;2.03;;;10.80;96.60;;;;;;5113162;28;20022;-60
2022/11/03 00:08:31;;;;;;;7.10;2.25;;;10.80;96.70;;;;;;5112375;28;20030;-60
2022/11/03 00:11:09;;;;;;;8.48;2.28;;;10.80;96.80;;;;;;5113111;28;20037;-60
2022/11/03 00:13:35;;;;;;;5.43;1.77;;;10.80;97.00;;;;;;5113207;28;20126;-61
2022/11/03 00:16:02;;;;;;;7.88;2.63;;;10.70;97.00;;;;;;5112802;28;20015;-59
2022/11/03 00:18:27;;;;;;;9.57;2.45;;;10.80;97.00;;;;;;5113148;28;20078;-56
2022/11/03 00:20:57;;;;;;;9.70;2.30;;;10.80;97.10;;;;;;5112914;28;20024;-59
2022/11/03 00:23:25;;;;;;;7.15;1.98;;;10.70;97.10;;;;;;5112419;28;20023;-58
2022/11/03 00:25:51;;;;;;;6.30;1.80;;;10.70;97.20;;;;;;5113187;28;20360;-58
2022/11/03 00:28:17;;;;;;;4.18;1.52;;;10.70;97.20;;;;;;5113040;28;20035;-58
2022/11/03 00:30:42;;;;;;;5.90;1.80;;;10.70;97.20;;;;;;5112106;28;20027;-61
2022/11/03 00:33:08;;;;;;;6.07;1.50;;;10.80;97.30;;;;;;5112774;28;20031;-65
2022/11/03 00:35:33;;;;;;;8.07;1.60;;;10.70;97.30;;;;;;5113102;28;20020;-58
2022/11/03 00:37:59;;;;;;;5.25;1.52;;;10.80;97.30;;;;;;5112077;28;20070;-58
2022/11/03 00:40:24;;;;;;;8.50;1.75;;;10.70;97.30;;;;;;5112863;28;20494;-59
2022/11/03 00:42:50;;;;;;;5.50;1.58;;;10.70;97.40;;;;;;5112789;28;20445;-57
2022/11/03 00:45:15;;;;;;;4.65;1.65;;;10.70;97.40;;;;;;5112132;28;20102;-57
2022/11/03 00:48:28;;;;;;;4.93;1.67;;;10.70;97.40;;;;;;5112378;28;20023;-59
2022/11/03 00:50:26;;;;;;;10.52;2.42;;;10.70;97.50;;;;;;5111682;28;20104;-59
2022/11/03 00:52:52;;;;;;;7.88;2.03;;;10.70;97.60;;;;;;5112464;28;20024;-58
2022/11/03 00:55:18;;;;;;;7.40;1.95;;;10.70;97.80;;;;;;5112738;28;20020;-57
2022/11/03 00:57:44;;;;;;;5.85;2.08;;;10.70;97.80;;;;;;5111784;28;20035;-59
2022/11/03 01:00:10;;;;;;;5.97;1.70;;;10.70;97.80;;;;;;5112904;28;20011;-60
2022/11/03 01:02:36;;;;;;;13.05;2.80;;;10.70;97.90;;;;;;5112269;28;20383;-58
2022/11/03 01:07:45;;;;;;;7.22;2.20;;;10.60;98.00;;;;;;5112744;28;20050;-58
2022/11/03 01:10:11;;;;;;;10.05;2.78;;;10.50;98.10;;;;;;5111320;28;20589;-58
2022/11/03 01:12:36;;;;;;;7.43;2.42;;;10.50;98.30;;;;;;5110355;28;20035;-57
2022/11/03 01:15:02;;;;;;;13.55;4.22;;;10.50;98.30;;;;;;5112648;28;20379;-58
2022/11/03 01:17:28;;;;;;;7.35;2.15;;;10.50;98.50;;;;;;5112427;28;20050;-57
2022/11/03 01:19:54;;;;;;;7.70;2.72;;;10.40;98.50;;;;;;5110573;28;20037;-59
2022/11/03 01:22:21;;;;;;;7.43;2.50;;;10.40;98.60;;;;;;5112619;28;20149;-59
2022/11/03 01:24:47;;;;;;;9.77;2.40;;;10.40;98.60;;;;;;5112366;28;20028;-58
2022/11/03 01:27:15;;;;;;;7.00;2.38;;;10.40;98.70;;;;;;5111941;28;20077;-58
2022/11/03 01:29:41;;;;;;;6.25;1.95;;;10.40;98.80;;;;;;5112063;28;20020;-58
2022/11/03 01:32:07;;;;;;;11.23;2.65;;;10.30;99.00;;;;;;5112342;28;20084;-58
2022/11/03 01:34:33;;;;;;;6.40;2.28;;;10.30;99.10;;;;;;5111707;28;20016;-59
2022/11/03 01:36:59;;;;;;;12.02;2.85;;;10.30;99.10;;;;;;5112146;28;20046;-58
2022/11/03 01:39:25;;;;;;;8.48;2.50;;;10.30;99.20;;;;;;5112074;28;20020;-64
2022/11/03 01:41:52;;;;;;;9.43;2.30;;;10.30;99.30;;;;;;5112260;28;20467;-63
2022/11/03 01:44:17;;;;;;;8.35;2.38;;;10.30;99.30;;;;;;5112278;28;20028;-66
2022/11/03 01:47:00;;;;;;;6.70;2.38;;;10.30;99.30;;;;;;5111744;28;20042;-66
2022/11/03 01:49:32;;;;;;;7.78;2.70;;;10.30;99.30;;;;;;5112665;28;20466;-66
2022/11/03 01:52:07;;;;;;;9.63;2.28;;;10.30;99.40;;;;;;5112018;28;20443;-61
2022/11/03 01:54:35;;;;;;;8.63;2.20;;;10.30;99.40;;;;;;5111735;28;20020;-65
2022/11/03 01:57:08;;;;;;;7.32;1.95;;;10.30;99.40;;;;;;5112146;28;20070;-63
2022/11/03 01:59:35;;;;;;;6.55;2.38;;;10.30;99.40;;;;;;5114513;28;20428;-57
2022/11/03 02:02:01;;;;;;;5.50;2.22;;;10.30;99.50;;;;;;5115016;28;20161;-59
2022/11/03 02:04:30;;;;;;;9.23;2.58;;;10.20;99.70;;;;;;5115465;28;20107;-56
2022/11/03 02:07:26;;;;;;;8.25;1.98;;;10.30;99.60;;;;;;5115853;28;20027;-59
2022/11/03 02:09:51;;;;;;;10.43;1.83;;;10.30;99.60;;;;;;5114968;28;20016;-61
2022/11/03 02:12:20;;;;;;;6.65;1.73;;;10.20;99.60;;;;;;5114151;28;20046;-61
2022/11/03 02:14:56;;;;;;;5.00;1.83;;;10.20;99.70;;;;;;5114806;28;20019;-60
2022/11/03 02:17:24;;;;;;;6.45;2.03;;;10.20;99.80;;;;;;5115748;28;20020;-65
2022/11/03 02:20:00;;;;;;;7.93;2.05;;;10.20;99.90;;;;;;5115451;28;20486;-62
2022/11/03 02:22:58;;;;;;;6.32;2.55;;;10.20;99.90;;;;;;5114709;28;20023;-60
2022/11/03 02:25:43;;;;;;;6.72;2.15;;;10.10;99.90;;;;;;5113800;28;20015;-63
2022/11/03 02:28:11;;;;;;;7.40;2.30;;;10.10;99.90;;;;;;5115454;28;20023;-65
2022/11/03 02:30:57;;;;;;;7.97;2.00;;;10.10;99.90;;;;;;5114368;28;20510;-62
2022/11/03 02:33:44;;;;;;;7.38;1.90;;;10.00;99.90;;;;;;5083314;28;20032;-65
2022/11/03 02:36:18;;;;;;;8.82;2.28;;;10.00;99.90;;;;;;5114321;28;20364;-61
2022/11/03 02:38:51;;;;;;;7.75;2.22;;;10.00;99.90;;;;;;5115062;28;20073;-56
2022/11/03 02:41:17;;;;;;;9.27;2.95;;;10.00;99.90;;;;;;5113740;28;20232;-58
2022/11/03 02:43:44;;;;;;;5.13;2.05;;;10.00;99.90;;;;;;5112908;28;20019;-59
2022/11/03 02:46:12;;;;;;;7.32;2.05;;;10.00;99.90;;;;;;5115166;28;20092;-61
2022/11/03 02:48:37;;;;;;;4.50;1.83;;;10.00;99.90;;;;;;5114827;28;20133;-58
2022/11/03 02:51:04;;;;;;;10.15;2.65;;;10.00;99.90;;;;;;5105933;28;20126;-57
2022/11/03 02:53:30;;;;;;;7.35;2.30;;;9.90;99.90;;;;;;5091359;28;20019;-56
2022/11/03 02:56:04;;;;;;;9.30;2.28;;;9.90;99.90;;;;;;5114568;28;20016;-55
2022/11/03 02:58:52;;;;;;;8.75;2.00;;;9.90;99.90;;;;;;5096832;28;20556;-56
2022/11/03 03:01:33;;;;;;;7.03;2.05;;;9.90;99.90;;;;;;5093840;28;20077;-57
2022/11/03 03:04:08;;;;;;;9.80;2.20;;;9.90;99.90;;;;;;5093247;28;20414;-57
2022/11/03 03:07:09;;;;;;;5.18;2.25;;;9.90;99.90;;;;;;5093911;28;20058;-55
2022/11/03 03:09:43;;;;;;;6.90;2.47;;;9.80;99.90;;;;;;5099110;28;20396;-56
2022/11/03 03:12:11;;;;;;;7.10;1.90;;;9.80;99.90;;;;;;5113558;28;20028;-58
2022/11/03 03:14:40;;;;;;;7.78;2.15;;;9.90;99.90;;;;;;5114061;28;20039;-57
2022/11/03 03:17:19;;;;;;;6.47;1.88;;;9.90;99.90;;;;;;5113989;28;20020;-59
2022/11/03 03:20:09;;;;;;;7.82;2.10;;;9.90;99.90;;;;;;5113191;28;20024;-58
2022/11/03 03:22:54;;;;;;;6.95;2.00;;;9.90;99.90;;;;;;5114114;28;20023;-57
2022/11/03 03:25:28;;;;;;;9.57;2.65;;;9.90;99.90;;;;;;5113303;28;20020;-56
2022/11/03 03:27:59;;;;;;;11.13;2.72;;;10.00;99.90;;;;;;5114174;28;20111;-54
2022/11/03 03:30:26;;;;;;;;;;;10.00;99.90;;;;;;5114747;28;20063;-57
2022/11/03 03:32:54;;;;;;;7.80;2.80;;;10.00;99.90;;;;;;5113090;28;19912;-55
2022/11/03 03:35:25;;;;;;;9.82;2.30;;;10.00;99.90;;;;;;5114092;28;20057;-54
2022/11/03 03:37:56;;;;;;;9.77;2.38;;;10.00;99.90;;;;;;5113579;28;20475;-59
2022/11/03 03:40:35;;;;;;;7.00;1.90;;;10.00;99.90;;;;;;5113210;28;20077;-59
2022/11/03 03:43:04;;;;;;;8.48;2.10;;;10.00;99.90;;;;;;5113529;28;20024;-64
2022/11/03 03:45:31;;;;;;;4.93;1.95;;;10.00;99.90;;;;;;5110816;28;20057;-63
2022/11/03 03:47:57;;;;;;;8.32;1.88;;;10.00;99.90;;;;;;5092370;28;20028;-66
2022/11/03 03:50:25;;;;;;;10.15;2.45;;;10.00;99.90;;;;;;5092803;28;20087;-66
2022/11/03 03:52:56;;;;;;;11.00;2.42;;;9.90;99.90;;;;;;5092648;28;20028;-66
2022/11/03 03:55:30;;;;;;;7.88;2.72;;;9.90;99.90;;;;;;5092584;28;20043;-64
2022/11/03 03:57:56;;;;;;;9.60;2.67;;;10.00;99.90;;;;;;5092977;28;20024;-64
2022/11/03 04:00:21;;;;;;;7.65;2.60;;;10.00;99.90;;;;;;5092116;28;20028;-65
2022/11/03 04:02:47;;;;;;;7.93;2.20;;;10.00;99.90;;;;;;5091637;28;20024;-64
2022/11/03 04:05:12;;;;;;;8.00;2.30;;;9.90;99.90;;;;;;5092539;28;20028;-58
2022/11/03 04:07:47;;;;;;;5.65;1.90;;;9.90;99.90;;;;;;5092436;28;20056;-63
2022/11/03 04:10:18;;;;;;;7.80;2.10;;;10.00;99.90;;;;;;5087661;28;20051;-59
2022/11/03 04:23:42;;;;;;;10.48;2.65;;;10.10;99.90;;;;;;5092691;28;20039;-60
2022/11/03 04:26:13;;;;;;;10.88;2.28;;;10.20;99.90;;;;;;5092517;28;20399;-64
2022/11/03 04:28:42;;;;;;;11.75;2.17;;;10.20;99.90;;;;;;5092050;28;20093;-63
2022/11/03 04:31:15;;;;;;;7.13;2.15;;;10.20;99.90;;;;;;5092389;28;20073;-65
2022/11/03 04:33:42;;;;;;;6.57;2.45;;;10.20;99.90;;;;;;5092120;28;20077;-64
2022/11/03 04:36:19;;;;;;;5.80;2.30;;;10.20;99.90;;;;;;5092124;28;20543;-65
2022/11/03 04:38:46;;;;;;;7.55;1.90;;;10.20;99.90;;;;;;5092589;28;20392;-62
2022/11/03 04:41:15;;;;;;;8.50;2.05;;;10.30;99.90;;;;;;5092579;28;20024;-63
2022/11/03 04:43:41;;;;;;;4.57;2.08;;;10.30;99.90;;;;;;5091629;28;20063;-62
2022/11/03 04:46:11;;;;;;;8.07;1.92;;;10.30;99.90;;;;;;5091264;28;20067;-65
2022/11/03 04:48:37;;;;;;;6.45;2.10;;;10.30;99.90;;;;;;5092258;28;20069;-57
2022/11/03 04:51:14;;;;;;;7.85;1.95;;;10.30;99.90;;;;;;5091273;28;20052;-59
2022/11/03 04:53:47;;;;;;;7.28;1.77;;;10.30;99.90;;;;;;5092434;28;20024;-56
2022/11/03 04:56:16;;;;;;;9.07;2.45;;;10.30;99.90;;;;;;5091943;28;20043;-57
2022/11/03 04:58:41;;;;;;;8.38;2.53;;;10.30;99.90;;;;;;5091646;28;20036;-57
2022/11/03 05:01:12;;;;;;;11.77;3.47;;;10.30;99.90;;;;;;5092175;28;20127;-60
2022/11/03 05:03:39;;;;;;;9.07;2.45;;;10.40;99.90;;;;;;5091571;28;20533;-57
2022/11/03 05:06:31;;;;;;;8.98;2.35;;;10.40;99.90;;;;;;5092280;28;20026;-57
2022/11/03 05:09:10;;;;;;;11.80;2.63;;;10.30;99.90;;;;;;5089998;28;20093;-56
2022/11/03 05:11:38;;;;;;;5.90;2.35;;;10.30;99.90;;;;;;5091308;28;20448;-58
2022/11/03 05:14:12;;;;;;;6.85;1.85;;;10.30;99.90;;;;;;5092329;28;20460;-57
2022/11/03 05:16:38;;;;;;;6.97;2.20;;;10.30;99.90;;;;;;5090802;28;20024;-57
2022/11/03 05:19:17;;;;;;;9.15;2.33;;;10.30;99.90;;;;;;5091497;28;20024;-54
2022/11/03 05:21:43;;;;;;;3.92;1.85;;;10.30;99.90;;;;;;5092088;28;20472;-60
2022/11/03 05:24:12;;;;;;;6.47;1.92;;;10.30;99.90;;;;;;5092293;28;20122;-58
2022/11/03 05:26:38;;;;;;;11.18;2.88;;;10.30;99.90;;;;;;5089927;28;20048;-58
2022/11/03 05:29:24;;;;;;;7.68;2.10;;;10.30;99.90;;;;;;5089382;28;20066;-58
2022/11/03 05:31:51;;;;;;;7.78;2.42;;;10.30;99.90;;;;;;5087464;28;20098;-57
2022/11/03 05:34:32;;;;;;;7.03;2.00;;;10.30;99.90;;;;;;5093087;28;20032;-56
2022/11/03 05:36:59;;;;;;;6.68;1.90;;;10.30;99.90;;;;;;5096061;28;20028;-56
2022/11/03 05:39:39;;;;;;;6.32;2.33;;;10.30;99.90;;;;;;5093265;28;20349;-57
2022/11/03 05:42:38;;;;;;;7.50;2.70;;;10.40;99.90;;;;;;5090774;28;20069;-60
2022/11/03 05:45:31;;;;;;;6.22;2.08;;;10.40;99.90;;;;;;5079261;28;20086;-59
2022/11/03 05:47:57;;;;;;;8.70;2.35;;;10.40;99.90;;;;;;5087012;28;20043;-63
2022/11/03 05:50:25;;;;;;;6.95;1.80;;;10.40;99.90;;;;;;5103948;28;20376;-58
2022/11/03 05:52:55;;;;;;;8.55;2.22;;;10.40;99.90;;;;;;5094843;28;20024;-56
2022/11/03 05:55:32;;;;;;;6.07;2.22;;;10.50;99.90;;;;;;5095569;28;20028;-62
2022/11/03 05:58:03;;;;;;;8.60;2.22;;;10.50;99.90;;;;;;5092700;28;20024;-59
2022/11/03 06:00:36;;;;;;;4.07;1.63;;;10.40;99.90;;;;;;5089581;28;20055;-66
2022/11/03 06:03:03;;;;;;;7.90;2.30;;;10.40;99.90;;;;;;5091075;28;20506;-63
2022/11/03 06:05:30;;;;;;;4.40;1.73;;;10.40;99.90;;;;;;5095340;28;20016;-57
2022/11/03 06:08:00;;;;;;;7.03;1.92;;;10.40;99.90;;;;;;5094862;28;20123;-61
2022/11/03 06:10:33;;;;;;;5.90;1.70;;;10.50;99.90;;;;;;5083355;28;20020;-64
2022/11/03 06:13:10;;;;;;;8.70;3.58;;;10.50;99.90;;;;;;5074989;28;20041;-66
2022/11/03 06:15:36;;;;;;;6.10;1.88;;;10.50;99.90;;;;;;5091651;28;20020;-66
2022/11/03 06:18:17;;;;;;;4.70;2.10;;;10.50;99.90;;;;;;5094676;28;20495;-67
2022/11/03 06:21:01;;;;;;;9.02;2.40;;;10.50;99.90;;;;;;5080472;28;20025;-67
2022/11/03 06:23:27;;;;;;;9.55;2.20;;;10.50;99.90;;;;;;5073289;28;20033;-67
2022/11/03 06:25:55;;;;;;;4.07;1.88;;;10.50;99.90;;;;;;5076436;28;20036;-66
2022/11/03 06:28:35;;;;;;;7.53;2.85;;;10.50;99.90;;;;;;5079383;28;20086;-57
2022/11/03 06:31:01;;;;;;;5.68;2.05;;;10.60;99.90;;;;;;5082239;28;20024;-57
2022/11/03 06:33:32;;;;;;;7.93;2.35;;;10.50;99.90;;;;;;5092592;28;20036;-58
2022/11/03 06:36:01;;;;;;;;;;;10.60;99.90;;;;;;5092264;28;20059;-61
2022/11/03 06:38:28;;;;;;;9.35;2.60;;;10.60;99.90;;;;;;5093997;28;19907;-59
2022/11/03 06:40:55;;;;;;;9.90;2.05;;;10.60;99.90;;;;;;5084227;28;20024;-61
2022/11/03 06:43:32;;;;;;;8.80;2.38;;;10.60;99.90;;;;;;5072111;28;20107;-59
2022/11/03 06:45:59;;;;;;;11.15;2.83;;;10.60;99.90;;;;;;5081609;28;20051;-58
2022/11/03 06:48:27;;;;;;;8.68;2.63;;;10.60;99.90;;;;;;5089190;28;20016;-58
2022/11/03 06:50:55;;;;;;;9.27;1.90;;;10.60;99.90;;;;;;5091392;28;20151;-58
2022/11/03 06:53:25;;;;;;;6.78;2.97;;;10.60;99.90;;;;;;5089506;28;20074;-60
2022/11/03 06:55:51;;;;;;;8.63;2.60;;;10.70;99.90;;;;;;5079837;28;20031;-56
2022/11/03 06:58:31;;;;;;;9.02;2.72;;;10.70;99.90;;;;;;5084995;28;20502;-63
2022/11/03 07:01:00;;;;;;;9.35;2.83;;;10.70;99.90;;;;;;5096710;28;20023;-58
2022/11/03 07:03:32;;;;;;;7.10;3.05;;;10.80;99.90;;;;;;5092566;28;20475;-57
2022/11/03 07:05:59;;;;;;;6.38;2.25;;;10.80;99.90;;;;;;5080544;28;20550;-58
2022/11/03 07:08:41;;;;;;;10.38;3.28;;;10.80;99.90;;;;;;5092184;28;20024;-57
2022/11/03 07:11:20;;;;;;;7.00;2.60;;;10.80;99.90;;;;;;5093082;28;20036;-59
2022/11/03 07:13:48;;;;;;;8.40;2.72;;;10.90;99.90;;;;;;5092295;28;20040;-59
2022/11/03 07:16:28;;;;;;;6.93;2.20;;;10.90;99.90;;;;;;5082666;28;20025;-57
2022/11/03 07:18:54;;;;;;;7.60;2.30;;;10.90;99.90;;;;;;5073281;28;20013;-58
2022/11/03 07:21:26;;;;;;;3.97;1.48;;;10.90;99.90;;;;;;5080439;28;20550;-60
2022/11/03 07:23:52;;;;;;;7.22;3.33;;;11.00;99.90;;;;;;5089918;28;20073;-60
2022/11/03 07:26:17;;;;;;;6.88;2.00;;;11.00;99.90;;;;;;5082363;28;20040;-57
2022/11/03 07:28:43;;;;;;;7.30;1.92;;;11.00;99.90;;;;;;5093006;28;20031;-53
2022/11/03 07:31:17;;;;;;;5.45;2.00;;;11.00;99.90;;;;;;5085927;28;20081;-55
2022/11/03 07:33:43;;;;;;;7.00;2.03;;;11.00;99.90;;;;;;5089218;28;20028;-56
2022/11/03 07:36:12;;;;;;;5.65;2.20;;;11.00;99.90;;;;;;5092294;28;20042;-57
2022/11/03 07:38:38;;;;;;;5.50;2.17;;;11.10;99.90;;;;;;5091422;28;20534;-57
2022/11/03 07:41:05;;;;;;;9.18;2.47;;;11.10;99.90;;;;;;5092864;28;20067;-57
2022/11/03 07:43:37;;;;;;;7.70;2.13;;;11.20;99.90;;;;;;5093046;28;20443;-57
2022/11/03 07:46:04;;;;;;;7.35;2.30;;;11.20;99.90;;;;;;5092454;28;20483;-57
2022/11/03 07:48:38;;;;;;;7.20;2.55;;;11.30;99.90;;;;;;5091626;28;20162;-57
2022/11/03 07:51:27;;;;;;;5.15;2.60;;;11.30;99.90;;;;;;5092472;28;20063;-59
2022/11/03 07:54:01;;;;;;;6.68;2.75;;;11.40;99.90;;;;;;5092801;28;20021;-58
2022/11/03 07:56:39;;;;;;;6.63;2.22;;;11.50;99.90;;;;;;5092362;28;20161;-61
2022/11/03 07:59:07;;;;;;;6.82;2.60;;;11.60;99.90;;;;;;5092978;28;20396;-64
2022/11/03 08:01:48;;;;;;;8.38;2.58;;;11.70;99.90;;;;;;5092091;28;20112;-59
2022/11/03 08:04:24;;;;;;;7.07;2.35;;;11.70;99.90;;;;;;5092513;28;20032;-61
2022/11/03 08:06:50;;;;;;;8.15;2.45;;;11.80;99.90;;;;;;5091790;28;20070;-61
2022/11/03 08:09:16;;;;;;;7.05;2.50;;;11.90;99.90;;;;;;5092653;28;20514;-59
2022/11/03 08:11:41;;;;;;;8.05;2.33;;;11.90;99.90;;;;;;5092338;28;20032;-61
2022/11/03 08:14:08;;;;;;;10.52;2.55;;;12.00;99.90;;;;;;5091823;28;20017;-61
2022/11/03 08:16:33;;;;;;;7.13;2.10;;;12.00;99.90;;;;;;5091310;28;20031;-60
2022/11/03 08:18:59;;;;;;;11.13;2.58;;;12.10;99.90;;;;;;5092550;28;20371;-60
2022/11/03 08:21:24;;;;;;;12.10;2.60;;;12.10;99.90;;;;;;5090594;28;20034;-53
2022/11/03 08:23:51;;;;;;;6.18;2.50;;;12.10;99.90;;;;;;5092280;28;20035;-54
2022/11/03 08:26:16;;;;;;;9.10;3.20;;;12.20;99.90;;;;;;5091135;28;20409;-55
2022/11/03 08:28:42;;;;;;;9.52;2.95;;;12.30;99.90;;;;;;5089703;28;20081;-60
2022/11/03 08:31:08;;;;;;;8.65;2.20;;;12.30;99.90;;;;;;5090962;28;20407;-62
2022/11/03 08:33:34;;;;;;;11.40;2.75;;;12.30;99.90;;;;;;5091921;28;20098;-54
2022/11/03 08:36:01;;;;;;;14.35;3.53;;;12.40;99.90;;;;;;5091544;28;20031;-58
2022/11/03 08:38:27;;;;;;;11.00;3.83;;;12.40;99.90;;;;;;5091733;28;20024;-60
2022/11/03 08:40:54;;;;;;;8.02;2.65;;;12.50;99.90;;;;;;5091903;28;20473;-56
2022/11/03 08:43:20;;;;;;;8.32;2.92;;;12.50;99.90;;;;;;5091280;28;20016;-57
2022/11/03 08:45:45;;;;;;;14.25;2.80;;;12.60;99.90;;;;;;5091114;28;20020;-59
2022/11/03 08:48:11;;;;;;;9.00;2.17;;;12.60;99.90;;;;;;5091795;28;20027;-67
2022/11/03 08:50:37;;;;;;;6.53;2.10;;;12.70;99.90;;;;;;5091005;28;20131;-61
2022/11/03 08:53:03;;;;;;;9.18;2.53;;;12.70;99.90;;;;;;5092212;28;20126;-59
2022/11/03 08:55:28;;;;;;;11.63;2.60;;;12.70;99.90;;;;;;5091282;28;20020;-61
2022/11/03 08:57:54;;;;;;;7.10;2.35;;;12.70;99.90;;;;;;5090129;28;20035;-59
2022/11/03 09:00:21;;;;;;;3.88;1.90;;;12.70;99.90;;;;;;5090049;28;20511;-59
2022/11/03 09:02:47;;;;;;;5.97;2.30;;;12.70;99.90;;;;;;5090895;28;20020;-60
2022/11/03 09:05:13;;;;;;;5.57;2.42;;;12.80;99.90;;;;;;5091700;28;20157;-55
2022/11/03 09:07:39;;;;;;;6.93;2.47;;;12.80;99.90;;;;;;5093158;28;20157;-58
2022/11/03 09:10:07;;;;;;;9.85;2.58;;;12.80;99.80;;;;;;5095362;28;20099;-58
2022/11/03 09:12:33;;;;;;;5.43;2.30;;;12.90;99.70;;;;;;5094403;28;20043;-60
2022/11/03 09:14:58;;;;;;;7.32;2.60;;;12.90;99.60;;;;;;5096211;28;20020;-64
2022/11/03 09:17:24;;;;;;;8.18;2.30;;;13.00;99.30;;;;;;5095607;28;20028;-59
2022/11/03 09:19:50;;;;;;;8.07;2.22;;;13.10;99.20;;;;;;5095844;28;20376;-58
2022/11/03 09:22:15;;;;;;;7.15;3.00;;;13.10;99.10;;;;;;5095900;28;20020;-63
2022/11/03 09:24:41;;;;;;;8.00;2.65;;;13.20;99.00;;;;;;5095069;28;20463;-60
2022/11/03 09:27:07;;;;;;;11.02;2.55;;;13.30;98.70;;;;;;5095580;28;20054;-59
2022/11/03 09:29:32;;;;;;;7.47;2.15;;;13.30;98.60;;;;;;5095415;28;20024;-58
2022/11/03 09:31:58;;;;;;;5.88;2.38;;;13.40;98.50;;;;;;5094878;28;20101;-61
2022/11/03 09:34:24;;;;;;;8.52;2.55;;;13.50;98.30;;;;;;5095225;28;20036;-56
2022/11/03 09:36:49;;;;;;;7.40;2.47;;;13.50;98.30;;;;;;5095373;28;20110;-56
2022/11/03 09:39:15;;;;;;;8.00;2.28;;;13.50;98.20;;;;;;5094641;28;20115;-58
2022/11/03 09:41:41;;;;;;;10.13;2.40;;;13.50;98.20;;;;;;5095271;28;20113;-56
2022/11/03 09:44:06;;;;;;;4.72;2.15;;;13.60;98.10;;;;;;5095350;28;20032;-54
2022/11/03 09:46:34;;;;;;;6.72;2.47;;;13.70;98.30;;;;;;5094486;28;20016;-57
2022/11/03 09:49:00;;;;;;;9.52;2.40;;;13.80;97.80;;;;;;5093814;28;20426;-55
2022/11/03 09:51:26;;;;;;;6.47;1.85;;;13.90;97.60;;;;;;5094898;28;20063;-54
2022/11/03 09:53:52;;;;;;;6.07;2.38;;;14.00;97.30;;;;;;5094450;28;20077;-57
2022/11/03 09:56:21;;;;;;;5.93;2.38;;;14.10;97.20;;;;;;5093581;28;20085;-58
2022/11/03 09:58:47;;;;;;;10.18;2.47;;;14.30;97.10;;;;;;5095214;28;20020;-57
2022/11/03 10:01:13;;;;;;;9.43;2.50;;;14.40;96.70;;;;;;5094907;28;20413;-59
2022/11/03 10:03:39;;;;;;;10.30;2.28;;;14.40;96.40;;;;;;5093537;28;20024;-58
2022/11/03 10:06:05;;;;;;;8.80;2.70;;;14.40;96.00;;;;;;5094433;28;20031;-67
2022/11/03 10:08:34;;;;;;;6.57;2.22;;;14.40;95.90;;;;;;5094836;28;20085;-60
2022/11/03 10:11:01;;;;;;;7.45;2.50;;;14.40;95.80;;;;;;5094953;28;20149;-65
2022/11/03 10:13:34;;;;;;;6.85;1.92;;;14.30;95.60;;;;;;5093994;28;20464;-61
2022/11/03 10:16:01;;;;;;;3.83;1.77;;;14.30;95.70;;;;;;5093575;28;20088;-61
2022/11/03 10:18:28;;;;;;;9.00;2.60;;;14.20;95.60;;;;;;5094714;28;20507;-62
2022/11/03 10:20:54;;;;;;;6.70;1.88;;;14.20;95.60;;;;;;5093465;28;20047;-61
2022/11/03 10:23:19;;;;;;;7.60;2.00;;;14.10;95.70;;;;;;5094482;28;20027;-58
2022/11/03 10:25:45;;;;;;;3.78;1.70;;;14.10;95.70;;;;;;5094582;28;20103;-64
2022/11/03 10:28:17;;;;;;;6.03;1.88;;;14.10;95.50;;;;;;5092691;28;20023;-63
2022/11/03 10:31:16;;;;;;;6.15;2.00;;;14.10;95.50;;;;;;5093504;28;20376;-59
2022/11/03 10:33:55;;;;;;;6.72;2.00;;;14.10;95.40;;;;;;5094115;28;20036;-60
2022/11/03 10:36:28;;;;;;;5.65;2.17;;;14.10;95.20;;;;;;5093822;28;20047;-57
2022/11/03 10:38:54;;;;;;;9.85;1.88;;;14.20;95.20;;;;;;5094455;28;20028;-62
2022/11/03 10:41:26;;;;;;;5.22;1.90;;;14.30;94.80;;;;;;5093658;28;20220;-66
2022/11/03 10:44:10;;;;;;;7.25;2.15;;;14.30;94.70;;;;;;5092829;28;20490;-60
2022/11/03 10:46:37;;;;;;;3.53;1.70;;;14.40;94.70;;;;;;5094083;28;20028;-63
2022/11/03 10:49:13;;;;;;;4.93;1.52;;;14.40;94.40;;;;;;5093606;28;20383;-64
2022/11/03 10:51:40;;;;;;;7.55;2.20;;;14.40;94.10;;;;;;5094095;28;20063;-63
2022/11/03 10:54:11;;;;;;;5.35;1.88;;;14.40;93.90;;;;;;5092087;28;20035;-59
2022/11/03 10:56:37;;;;;;;5.18;1.50;;;14.40;93.80;;;;;;5092794;28;20024;-63
2022/11/03 10:59:03;;;;;;;5.53;1.70;;;14.40;93.70;;;;;;5092901;28;20475;-62
2022/11/03 11:01:29;;;;;;;6.63;1.90;;;14.40;93.80;;;;;;5093506;28;20046;-57
2022/11/03 11:03:54;;;;;;;6.40;2.47;;;14.40;93.70;;;;;;5093198;28;20464;-57
2022/11/03 11:06:26;;;;;;;8.30;2.05;;;14.50;93.70;;;;;;5093614;28;20038;-62
2022/11/03 11:08:56;;;;;;;7.45;1.90;;;14.50;93.60;;;;;;5093901;28;20104;-59
2022/11/03 11:11:22;;;;;;;6.55;1.90;;;14.50;93.50;;;;;;5093132;28;20078;-57
2022/11/03 11:14:24;;;;;;;6.25;1.95;;;14.50;93.30;;;;;;5093368;28;20074;-57
2022/11/03 11:16:54;;;;;;;4.10;2.00;;;14.60;93.10;;;;;;5093196;28;20047;-58
2022/11/03 11:19:22;;;;;;;4.32;1.67;;;14.60;93.10;;;;;;5093521;28;20494;-55
2022/11/03 11:21:48;;;;;;;6.82;2.33;;;14.50;93.10;;;;;;5093365;28;20031;-58
2022/11/03 11:24:43;;;;;;;6.30;2.22;;;14.60;93.00;;;;;;5091430;28;20135;-56
2022/11/03 11:27:30;;;;;;;7.10;3.03;;;14.70;93.00;;;;;;5093437;28;20115;-57
2022/11/03 11:29:57;;;;;;;6.80;2.08;;;14.70;92.80;;;;;;5093068;28;20086;-58
2022/11/03 11:32:40;;;;;;;5.90;1.92;;;14.80;92.60;;;;;;5091557;28;20024;-55
2022/11/03 11:35:08;;;;;;;3.75;1.50;;;14.90;92.50;;;;;;5093372;28;20028;-58
2022/11/03 11:37:35;;;;;;;5.90;1.85;;;15.00;91.90;;;;;;5092543;28;20173;-58
2022/11/03 11:40:02;;;;;;;8.75;2.08;;;15.00;91.80;;;;;;5092949;28;20028;-58
2022/11/03 11:42:28;;;;;;;4.50;1.77;;;15.10;91.50;;;;;;5091784;28;20026;-57
2022/11/03 11:44:59;;;;;;;4.45;1.52;;;15.20;91.40;;;;;;5092461;28;20028;-58
2022/11/03 11:47:39;;;;;;;7.55;2.05;;;15.20;91.30;;;;;;5092701;28;20066;-58
2022/11/03 11:50:05;;;;;;;7.10;2.67;;;15.20;91.40;;;;;;5092724;28;20047;-58
2022/11/03 11:52:49;;;;;;;7.25;2.13;;;15.20;91.50;;;;;;5092263;28;20402;-58
2022/11/03 11:55:27;;;;;;;5.97;1.90;;;15.30;91.30;;;;;;5093009;28;20419;-60
2022/11/03 11:57:53;;;;;;;7.85;2.17;;;15.30;91.00;;;;;;5092201;28;20472;-59
2022/11/03 12:00:23;;;;;;;7.97;2.20;;;15.40;90.80;;;;;;5090449;28;20042;-59
2022/11/03 12:02:50;;;;;;;5.20;1.73;;;15.40;90.90;;;;;;5092512;28;20091;-59
2022/11/03 12:05:22;;;;;;;5.35;2.08;;;15.40;90.90;;;;;;5092702;28;20020;-63
2022/11/03 12:07:49;;;;;;;5.03;2.17;;;15.50;90.90;;;;;;5092273;28;20020;-66
2022/11/03 12:10:21;;;;;;;5.03;2.03;;;15.60;90.60;;;;;;5092938;28;20157;-62
2022/11/03 12:12:47;;;;;;;6.28;1.65;;;15.60;90.40;;;;;;5092203;28;20063;-59
2022/11/03 12:15:50;;;;;;;5.15;1.88;;;15.60;90.20;;;;;;5092155;28;20035;-57
2022/11/03 12:18:36;;;;;;;3.97;1.80;;;15.60;90.10;;;;;;5092673;28;20019;-61
2022/11/03 12:21:04;;;;;;;7.40;2.42;;;15.60;90.10;;;;;;5092001;28;20052;-59
2022/11/03 12:23:43;;;;;;;4.45;1.70;;;15.50;90.10;;;;;;5092413;28;20069;-61
2022/11/03 12:26:27;;;;;;;7.15;1.92;;;15.50;90.30;;;;;;5092403;28;20028;-57
2022/11/03 12:28:53;;;;;;;6.47;2.90;;;15.40;90.20;;;;;;5091925;28;20448;-57
2022/11/03 12:31:19;;;;;;;4.45;1.92;;;15.30;90.30;;;;;;5092094;28;20107;-57
2022/11/03 12:33:44;;;;;;;5.38;1.85;;;15.30;90.50;;;;;;5089949;28;20035;-59
2022/11/03 12:36:10;;;;;;;4.85;1.58;;;15.40;90.60;;;;;;5091904;28;20461;-60
2022/11/03 12:38:36;;;;;;;7.00;2.15;;;15.50;90.50;;;;;;5090841;28;20024;-59
2022/11/03 12:41:20;;;;;;;4.03;1.58;;;15.60;90.40;;;;;;5091722;28;20024;-56
2022/11/03 12:43:48;;;;;;;5.05;1.70;;;15.60;90.10;;;;;;5091715;28;20476;-60
2022/11/03 12:46:15;;;;;;;7.65;1.83;;;15.70;90.10;;;;;;5091496;28;20059;-60
2022/11/03 12:48:42;;;;;;;3.78;1.42;;;15.80;89.90;;;;;;5092137;28;20047;-58
2022/11/03 12:51:12;;;;;;;4.95;2.05;;;15.90;89.90;;;;;;5091722;28;20063;-57
2022/11/03 12:53:40;;;;;;;7.88;1.90;;;15.90;90.20;;;;;;5091603;28;20142;-58
2022/11/03 12:56:06;;;;;;;7.05;1.70;;;16.00;89.30;;;;;;5092208;28;20028;-59
2022/11/03 12:58:32;;;;;;;5.82;2.38;;;16.10;88.40;;;;;;5091909;28;20024;-60
2022/11/03 13:00:58;;;;;;;3.15;1.33;;;16.10;88.00;;;;;;5088507;28;20429;-62
2022/11/03 13:03:24;;;;;;;4.13;1.80;;;16.10;88.00;;;;;;5091861;28;20424;-62
2022/11/03 13:05:49;;;;;;;3.83;1.60;;;16.10;88.20;;;;;;5092144;28;20028;-66
2022/11/03 13:08:15;;;;;;;3.40;1.60;;;16.10;88.00;;;;;;5089892;28;20024;-55
2022/11/03 13:10:41;;;;;;;4.00;1.40;;;16.10;88.00;;;;;;5091925;28;20016;-61
2022/11/03 13:13:06;;;;;;;4.20;1.65;;;16.10;88.00;;;;;;5091512;28;20504;-56
2022/11/03 13:15:32;;;;;;;5.93;1.77;;;16.10;88.10;;;;;;5091076;28;20554;-58
2022/11/03 13:17:57;;;;;;;5.50;1.90;;;16.10;88.20;;;;;;5091734;28;20452;-58